sensor_id;sensor_type;location;lat;lon;timestamp;pressure;altitude;pressure_sealevel;temperature;humidity
54329;BME280;40710;51.120;13.136;2023-02-16T00:00:18;100245.72;;;8.69;46.59
54329;BME280;40710;51.120;13.136;2023-02-16T00:02:43;100245.50;;;8.77;46.22
54329;BME280;40710;51.120;13.136;2023-02-16T00:05:28;100248.59;;;8.61;46.26
54329;BME280;40710;51.120;13.136;2023-02-16T00:07:54;100246.00;;;8.60;46.88
54329;BME280;40710;51.120;13.136;2023-02-16T00:10:20;100261.22;;;7.86;48.37
54329;BME280;40710;51.120;13.136;2023-02-16T00:12:45;100258.06;;;8.36;47.48
54329;BME280;40710;51.120;13.136;2023-02-16T00:15:29;100246.00;;;8.60;46.50
54329;BME280;40710;51.120;13.136;2023-02-16T00:17:56;100253.28;;;8.19;47.34
54329;BME280;40710;51.120;13.136;2023-02-16T00:20:21;100260.22;;;7.90;48.14
54329;BME280;40710;51.120;13.136;2023-02-16T00:22:46;100262.38;;;7.75;48.82
54329;BME280;40710;51.120;13.136;2023-02-16T00:25:10;100254.34;;;7.82;48.46
54329;BME280;40710;51.120;13.136;2023-02-16T00:27:36;100254.03;;;7.61;48.80
54329;BME280;40710;51.120;13.136;2023-02-16T00:30:01;100253.44;;;7.83;48.40
54329;BME280;40710;51.120;13.136;2023-02-16T00:32:25;100252.41;;;8.20;47.77
54329;BME280;40710;51.120;13.136;2023-02-16T00:34:50;100252.41;;;7.88;48.26
54329;BME280;40710;51.120;13.136;2023-02-16T00:37:14;100237.91;;;8.38;47.69
54329;BME280;40710;51.120;13.136;2023-02-16T00:39:41;100258.50;;;8.20;48.29
54329;BME280;40710;51.120;13.136;2023-02-16T00:44:42;100243.38;;;8.60;47.22
54329;BME280;40710;51.120;13.136;2023-02-16T00:49:54;100245.44;;;8.19;47.69
54329;BME280;40710;51.120;13.136;2023-02-16T00:52:39;100248.75;;;8.25;47.96
54329;BME280;40710;51.120;13.136;2023-02-16T00:55:12;100264.66;;;7.55;49.74
54329;BME280;40710;51.120;13.136;2023-02-16T00:57:41;100260.56;;;7.78;49.54
54329;BME280;40710;51.120;13.136;2023-02-16T01:02:44;100250.81;;;8.45;47.63
54329;BME280;40710;51.120;13.136;2023-02-16T01:05:09;100264.16;;;7.05;50.88
54329;BME280;40710;51.120;13.136;2023-02-16T01:07:34;100255.75;;;7.62;49.85
54329;BME280;40710;51.120;13.136;2023-02-16T01:10:18;100242.81;;;7.89;49.76
54329;BME280;40710;51.120;13.136;2023-02-16T01:13:01;100231.09;;;8.62;47.48
54329;BME280;40710;51.120;13.136;2023-02-16T01:15:26;100236.00;;;8.44;47.64
54329;BME280;40710;51.120;13.136;2023-02-16T01:17:50;100239.50;;;8.13;48.69
54329;BME280;40710;51.120;13.136;2023-02-16T01:20:20;100239.56;;;7.81;49.60
54329;BME280;40710;51.120;13.136;2023-02-16T01:22:45;100237.66;;;7.86;48.98
54329;BME280;40710;51.120;13.136;2023-02-16T01:25:10;100237.47;;;8.23;48.45
54329;BME280;40710;51.120;13.136;2023-02-16T01:27:36;100234.41;;;8.39;47.98
54329;BME280;40710;51.120;13.136;2023-02-16T01:30:01;100240.44;;;7.47;50.53
54329;BME280;40710;51.120;13.136;2023-02-16T01:32:26;100232.41;;;7.54;50.68
54329;BME280;40710;51.120;13.136;2023-02-16T01:34:51;100239.44;;;7.52;50.50
54329;BME280;40710;51.120;13.136;2023-02-16T01:37:15;100242.94;;;7.17;51.15
54329;BME280;40710;51.120;13.136;2023-02-16T01:39:40;100231.03;;;7.39;51.67
54329;BME280;40710;51.120;13.136;2023-02-16T01:42:10;100226.06;;;7.30;51.63
54329;BME280;40710;51.120;13.136;2023-02-16T01:44:55;100227.91;;;7.27;51.72
54329;BME280;40710;51.120;13.136;2023-02-16T01:47:52;100202.78;;;8.15;49.49
54329;BME280;40710;51.120;13.136;2023-02-16T01:50:20;100207.06;;;7.88;49.92
54329;BME280;40710;51.120;13.136;2023-02-16T01:52:57;100222.91;;;7.17;52.48
54329;BME280;40710;51.120;13.136;2023-02-16T01:57:56;100204.72;;;8.38;49.03
54329;BME280;40710;51.120;13.136;2023-02-16T02:03:17;100199.47;;;8.10;49.61
54329;BME280;40710;51.120;13.136;2023-02-16T02:06:01;100214.50;;;7.39;51.63
54329;BME280;40710;51.120;13.136;2023-02-16T02:08:28;100206.84;;;7.64;50.67
54329;BME280;40710;51.120;13.136;2023-02-16T02:13:50;100212.59;;;7.46;51.53
54329;BME280;40710;51.120;13.136;2023-02-16T02:16:19;100214.06;;;7.56;51.59
54329;BME280;40710;51.120;13.136;2023-02-16T02:18:44;100220.72;;;7.35;51.21
54329;BME280;40710;51.120;13.136;2023-02-16T02:21:27;100214.44;;;7.08;52.31
54329;BME280;40710;51.120;13.136;2023-02-16T02:25:02;100198.81;;;8.31;49.95
54329;BME280;40710;51.120;13.136;2023-02-16T02:27:51;100212.56;;;7.47;51.41
54329;BME280;40710;51.120;13.136;2023-02-16T02:30:34;100214.66;;;6.98;52.47
54329;BME280;40710;51.120;13.136;2023-02-16T02:36:03;100211.38;;;7.59;51.71
54329;BME280;40710;51.120;13.136;2023-02-16T02:38:47;100210.38;;;7.63;51.76
54329;BME280;40710;51.120;13.136;2023-02-16T02:41:49;100222.16;;;7.12;52.30
54329;BME280;40710;51.120;13.136;2023-02-16T02:44:29;100209.00;;;7.81;50.92
54329;BME280;40710;51.120;13.136;2023-02-16T02:46:54;100220.41;;;7.47;52.68
54329;BME280;40710;51.120;13.136;2023-02-16T02:49:20;100222.31;;;7.06;53.67
54329;BME280;40710;51.120;13.136;2023-02-16T02:51:44;100226.66;;;7.42;52.94
54329;BME280;40710;51.120;13.136;2023-02-16T02:54:20;100217.66;;;7.83;51.42
54329;BME280;40710;51.120;13.136;2023-02-16T02:57:18;100230.41;;;7.31;52.94
54329;BME280;40710;51.120;13.136;2023-02-16T03:03:26;100220.50;;;7.75;52.09
54329;BME280;40710;51.120;13.136;2023-02-16T03:06:02;100218.38;;;7.57;52.79
54329;BME280;40710;51.120;13.136;2023-02-16T03:08:31;100215.81;;;7.55;52.25
54329;BME280;40710;51.120;13.136;2023-02-16T03:11:03;100212.56;;;7.79;51.39
54329;BME280;40710;51.120;13.136;2023-02-16T03:14:11;100220.41;;;7.47;52.55
54329;BME280;40710;51.120;13.136;2023-02-16T03:19:14;100224.75;;;6.76;53.96
54329;BME280;40710;51.120;13.136;2023-02-16T03:22:00;100228.72;;;7.62;53.09
54329;BME280;40710;51.120;13.136;2023-02-16T03:24:45;100230.31;;;7.00;53.58
54329;BME280;40710;51.120;13.136;2023-02-16T03:27:35;100238.16;;;6.62;55.15
54329;BME280;40710;51.120;13.136;2023-02-16T03:30:21;100238.84;;;6.71;55.57
54329;BME280;40710;51.120;13.136;2023-02-16T03:32:47;100233.47;;;7.13;54.66
54329;BME280;40710;51.120;13.136;2023-02-16T03:35:13;100232.72;;;7.08;54.38
54329;BME280;40710;51.120;13.136;2023-02-16T03:37:40;100220.59;;;7.72;53.16
54329;BME280;40710;51.120;13.136;2023-02-16T03:40:12;100230.44;;;7.30;53.97
54329;BME280;40710;51.120;13.136;2023-02-16T03:42:56;100211.22;;;7.95;51.66
54329;BME280;40710;51.120;13.136;2023-02-16T03:45:23;100216.34;;;7.35;53.40
54329;BME280;40710;51.120;13.136;2023-02-16T03:47:47;100219.94;;;6.97;54.22
54329;BME280;40710;51.120;13.136;2023-02-16T03:50:12;100220.00;;;7.63;53.49
54329;BME280;40710;51.120;13.136;2023-02-16T03:52:37;100222.94;;;6.80;54.96
54329;BME280;40710;51.120;13.136;2023-02-16T03:55:01;100216.66;;;7.89;52.61
54329;BME280;40710;51.120;13.136;2023-02-16T03:57:26;100222.69;;;7.60;53.55
54329;BME280;40710;51.120;13.136;2023-02-16T03:59:50;100225.59;;;6.41;56.31
54329;BME280;40710;51.120;13.136;2023-02-16T04:02:16;100229.59;;;7.29;54.90
54329;BME280;40710;51.120;13.136;2023-02-16T04:04:41;100228.44;;;7.39;54.57
54329;BME280;40710;51.120;13.136;2023-02-16T04:07:05;100218.75;;;7.76;53.64
54329;BME280;40710;51.120;13.136;2023-02-16T04:09:30;100222.72;;;7.25;53.35
54329;BME280;40710;51.120;13.136;2023-02-16T04:11:55;100224.09;;;7.40;54.49
54329;BME280;40710;51.120;13.136;2023-02-16T04:14:38;100231.16;;;7.36;54.91
54329;BME280;40710;51.120;13.136;2023-02-16T04:17:02;100229.81;;;6.84;55.08
54329;BME280;40710;51.120;13.136;2023-02-16T04:19:27;100226.91;;;7.31;54.11
54329;BME280;40710;51.120;13.136;2023-02-16T04:21:52;100220.66;;;7.69;53.14
54329;BME280;40710;51.120;13.136;2023-02-16T04:24:16;100216.72;;;7.54;54.27
54329;BME280;40710;51.120;13.136;2023-02-16T04:26:41;100228.88;;;6.87;55.19
54329;BME280;40710;51.120;13.136;2023-02-16T04:29:05;100223.19;;;7.39;54.37
54329;BME280;40710;51.120;13.136;2023-02-16T04:31:30;100230.47;;;6.92;55.57
54329;BME280;40710;51.120;13.136;2023-02-16T04:33:54;100230.19;;;7.39;54.58
54329;BME280;40710;51.120;13.136;2023-02-16T04:36:19;100231.19;;;6.99;55.22
54329;BME280;40710;51.120;13.136;2023-02-16T04:38:43;100235.91;;;6.47;56.00
54329;BME280;40710;51.120;13.136;2023-02-16T04:41:08;100235.78;;;7.25;54.97
54329;BME280;40710;51.120;13.136;2023-02-16T04:43:32;100229.31;;;6.70;56.30
54329;BME280;40710;51.120;13.136;2023-02-16T04:45:57;100222.34;;;7.05;55.29
54329;BME280;40710;51.120;13.136;2023-02-16T04:48:22;100223.25;;;7.04;54.40
54329;BME280;40710;51.120;13.136;2023-02-16T04:50:46;100229.47;;;6.99;55.07
54329;BME280;40710;51.120;13.136;2023-02-16T04:53:11;100237.31;;;7.34;54.67
54329;BME280;40710;51.120;13.136;2023-02-16T04:55:35;100246.34;;;6.47;56.97
54329;BME280;40710;51.120;13.136;2023-02-16T04:58:00;100232.72;;;7.08;55.88
54329;BME280;40710;51.120;13.136;2023-02-16T05:00:25;100223.34;;;7.35;54.79
54329;BME280;40710;51.120;13.136;2023-02-16T05:02:49;100222.66;;;7.61;53.64
54329;BME280;40710;51.120;13.136;2023-02-16T05:05:14;100233.06;;;6.94;55.80
54329;BME280;40710;51.120;13.136;2023-02-16T05:07:38;100236.72;;;7.23;54.94
54329;BME280;40710;51.120;13.136;2023-02-16T05:10:03;100240.72;;;6.64;56.07
54329;BME280;40710;51.120;13.136;2023-02-16T05:12:28;100239.34;;;6.49;56.46
54329;BME280;40710;51.120;13.136;2023-02-16T05:15:19;100229.03;;;6.80;55.58
54329;BME280;40710;51.120;13.136;2023-02-16T05:17:43;100230.09;;;7.44;54.46
54329;BME280;40710;51.120;13.136;2023-02-16T05:20:09;100233.84;;;6.97;54.70
54329;BME280;40710;51.120;13.136;2023-02-16T05:22:34;100231.03;;;7.72;53.38
54329;BME280;40710;51.120;13.136;2023-02-16T05:25:01;100234.91;;;6.90;54.62
54329;BME280;40710;51.120;13.136;2023-02-16T05:27:28;100231.63;;;6.82;55.32
54329;BME280;40710;51.120;13.136;2023-02-16T05:29:52;100236.94;;;7.48;54.24
54329;BME280;40710;51.120;13.136;2023-02-16T05:32:17;100237.75;;;6.42;56.77
54329;BME280;40710;51.120;13.136;2023-02-16T05:34:42;100236.34;;;7.02;54.98
54329;BME280;40710;51.120;13.136;2023-02-16T05:37:07;100231.75;;;7.46;54.07
54329;BME280;40710;51.120;13.136;2023-02-16T05:39:32;100234.38;;;7.46;54.26
54329;BME280;40710;51.120;13.136;2023-02-16T05:41:56;100237.59;;;6.48;56.82
54329;BME280;40710;51.120;13.136;2023-02-16T05:44:21;100221.25;;;7.48;54.14
54329;BME280;40710;51.120;13.136;2023-02-16T05:46:46;100231.97;;;7.38;54.29
54329;BME280;40710;51.120;13.136;2023-02-16T05:49:11;100228.00;;;7.22;55.62
54329;BME280;40710;51.120;13.136;2023-02-16T05:51:36;100233.13;;;7.27;55.37
54329;BME280;40710;51.120;13.136;2023-02-16T05:54:01;100240.47;;;6.75;55.85
54329;BME280;40710;51.120;13.136;2023-02-16T05:56:25;100236.72;;;6.87;56.44
54329;BME280;40710;51.120;13.136;2023-02-16T05:58:50;100242.50;;;6.63;56.88
54329;BME280;40710;51.120;13.136;2023-02-16T06:01:16;100239.06;;;6.61;56.27
54329;BME280;40710;51.120;13.136;2023-02-16T06:03:41;100237.47;;;7.61;56.31
54329;BME280;40710;51.120;13.136;2023-02-16T06:06:06;100237.22;;;7.37;56.72
54329;BME280;40710;51.120;13.136;2023-02-16T06:08:31;100239.13;;;7.96;53.85
54329;BME280;40710;51.120;13.136;2023-02-16T06:10:56;100243.47;;;7.64;54.57
54329;BME280;40710;51.120;13.136;2023-02-16T06:13:22;100230.44;;;7.94;53.70
54329;BME280;40710;51.120;13.136;2023-02-16T06:15:50;100217.34;;;8.24;52.83
54329;BME280;40710;51.120;13.136;2023-02-16T06:18:16;100232.16;;;7.95;53.11
54329;BME280;40710;51.120;13.136;2023-02-16T06:20:41;100229.41;;;8.01;52.67
54329;BME280;40710;51.120;13.136;2023-02-16T06:23:06;100238.34;;;7.61;53.98
54329;BME280;40710;51.120;13.136;2023-02-16T06:25:31;100232.13;;;7.65;54.28
54329;BME280;40710;51.120;13.136;2023-02-16T06:27:56;100225.69;;;7.77;53.75
54329;BME280;40710;51.120;13.136;2023-02-16T06:30:21;100220.88;;;7.93;53.65
54329;BME280;40710;51.120;13.136;2023-02-16T06:32:45;100222.19;;;7.76;53.31
54329;BME280;40710;51.120;13.136;2023-02-16T06:35:10;100225.56;;;7.50;54.01
54329;BME280;40710;51.120;13.136;2023-02-16T06:37:34;100224.13;;;7.71;53.34
54329;BME280;40710;51.120;13.136;2023-02-16T06:39:59;100220.09;;;7.91;53.36
54329;BME280;40710;51.120;13.136;2023-02-16T06:42:24;100218.09;;;7.99;53.22
54329;BME280;40710;51.120;13.136;2023-02-16T06:44:48;100214.38;;;8.06;52.96
54329;BME280;40710;51.120;13.136;2023-02-16T06:47:13;100214.13;;;7.86;53.34
54329;BME280;40710;51.120;13.136;2023-02-16T06:49:37;100222.81;;;7.55;53.68
54329;BME280;40710;51.120;13.136;2023-02-16T06:52:02;100216.44;;;7.97;52.80
54329;BME280;40710;51.120;13.136;2023-02-16T06:54:26;100232.59;;;7.47;53.59
54329;BME280;40710;51.120;13.136;2023-02-16T06:56:51;100245.78;;;7.44;54.23
54329;BME280;40710;51.120;13.136;2023-02-16T06:59:15;100251.91;;;7.43;54.18
54329;BME280;40710;51.120;13.136;2023-02-16T07:01:41;100252.16;;;7.66;53.66
54329;BME280;40710;51.120;13.136;2023-02-16T07:04:05;100249.06;;;7.83;53.82
54329;BME280;40710;51.120;13.136;2023-02-16T07:06:30;100243.53;;;7.94;53.20
54329;BME280;40710;51.120;13.136;2023-02-16T07:08:55;100245.72;;;7.78;53.25
54329;BME280;40710;51.120;13.136;2023-02-16T07:11:21;100251.00;;;7.44;54.22
54329;BME280;40710;51.120;13.136;2023-02-16T07:13:46;100242.09;;;7.84;53.12
54329;BME280;40710;51.120;13.136;2023-02-16T07:16:10;100248.53;;;7.37;54.76
54329;BME280;40710;51.120;13.136;2023-02-16T07:18:35;100236.88;;;8.13;52.96
54329;BME280;40710;51.120;13.136;2023-02-16T07:20:59;100218.00;;;8.88;51.48
54329;BME280;40710;51.120;13.136;2023-02-16T07:23:24;100228.28;;;8.96;50.34
54329;BME280;40710;51.120;13.136;2023-02-16T07:25:49;100218.78;;;8.92;50.49
54329;BME280;40710;51.120;13.136;2023-02-16T07:28:13;100209.28;;;9.41;49.35
54329;BME280;40710;51.120;13.136;2023-02-16T07:30:38;100214.78;;;9.34;49.87
54329;BME280;40710;51.120;13.136;2023-02-16T07:33:03;100230.16;;;8.05;52.70
54329;BME280;40710;51.120;13.136;2023-02-16T07:35:29;100214.00;;;9.05;51.02
54329;BME280;40710;51.120;13.136;2023-02-16T07:37:54;100217.44;;;9.32;50.35
54329;BME280;40710;51.120;13.136;2023-02-16T07:40:18;100207.78;;;9.59;49.41
54329;BME280;40710;51.120;13.136;2023-02-16T07:42:43;100206.09;;;9.57;49.08
54329;BME280;40710;51.120;13.136;2023-02-16T07:45:08;100199.72;;;10.11;48.05
54329;BME280;40710;51.120;13.136;2023-02-16T07:47:32;100191.25;;;10.05;47.68
54329;BME280;40710;51.120;13.136;2023-02-16T07:49:57;100196.59;;;9.78;48.11
54329;BME280;40710;51.120;13.136;2023-02-16T07:52:21;100188.25;;;10.37;47.60
54329;BME280;40710;51.120;13.136;2023-02-16T07:54:49;100184.13;;;10.54;46.67
54329;BME280;40710;51.120;13.136;2023-02-16T07:57:13;100179.56;;;10.79;45.81
54329;BME280;40710;51.120;13.136;2023-02-16T07:59:38;100187.78;;;10.72;46.60
54329;BME280;40710;51.120;13.136;2023-02-16T08:02:02;100163.97;;;11.78;44.61
54329;BME280;40710;51.120;13.136;2023-02-16T08:04:27;100165.06;;;12.30;42.90
54329;BME280;40710;51.120;13.136;2023-02-16T08:06:51;100154.09;;;13.11;41.58
54329;BME280;40710;51.120;13.136;2023-02-16T08:09:16;100155.94;;;13.09;41.62
54329;BME280;40710;51.120;13.136;2023-02-16T08:11:41;100169.34;;;12.14;43.57
54329;BME280;40710;51.120;13.136;2023-02-16T08:14:06;100181.28;;;11.44;45.09
54329;BME280;40710;51.120;13.136;2023-02-16T08:16:30;100168.66;;;12.10;44.08
54329;BME280;40710;51.120;13.136;2023-02-16T08:18:57;100160.09;;;12.97;42.24
54329;BME280;40710;51.120;13.136;2023-02-16T08:21:26;100163.09;;;12.17;42.71
54329;BME280;40710;51.120;13.136;2023-02-16T08:23:57;100163.47;;;12.64;42.29
54329;BME280;40710;51.120;13.136;2023-02-16T08:26:23;100170.38;;;12.48;43.83
54329;BME280;40710;51.120;13.136;2023-02-16T08:28:48;100154.69;;;12.81;42.05
54329;BME280;40710;51.120;13.136;2023-02-16T08:31:15;100162.22;;;12.35;43.59
54329;BME280;40710;51.120;13.136;2023-02-16T08:33:40;100160.06;;;12.62;43.73
54329;BME280;40710;51.120;13.136;2023-02-16T08:36:05;100144.69;;;13.40;41.98
54329;BME280;40710;51.120;13.136;2023-02-16T08:38:36;100155.16;;;12.72;43.13
54329;BME280;40710;51.120;13.136;2023-02-16T08:41:01;100151.97;;;12.65;43.29
54329;BME280;40710;51.120;13.136;2023-02-16T08:43:26;100148.66;;;12.97;42.92
54329;BME280;40710;51.120;13.136;2023-02-16T08:45:50;100139.41;;;13.23;42.32
54329;BME280;40710;51.120;13.136;2023-02-16T08:48:15;100152.88;;;12.47;44.30
54329;BME280;40710;51.120;13.136;2023-02-16T08:50:45;100163.31;;;11.53;46.09
54329;BME280;40710;51.120;13.136;2023-02-16T08:53:10;100146.53;;;12.68;44.16
54329;BME280;40710;51.120;13.136;2023-02-16T08:55:35;100145.72;;;12.85;43.23
54329;BME280;40710;51.120;13.136;2023-02-16T08:57:59;100162.25;;;11.37;46.10
54329;BME280;40710;51.120;13.136;2023-02-16T09:00:24;100160.03;;;11.48;46.24
54329;BME280;40710;51.120;13.136;2023-02-16T09:02:58;100142.56;;;12.60;43.91
54329;BME280;40710;51.120;13.136;2023-02-16T09:05:22;100141.19;;;12.70;43.33
54329;BME280;40710;51.120;13.136;2023-02-16T09:07:47;100141.50;;;12.27;43.87
54329;BME280;40710;51.120;13.136;2023-02-16T09:10:13;100153.34;;;12.38;44.81
54329;BME280;40710;51.120;13.136;2023-02-16T09:12:37;100129.97;;;13.01;42.81
54329;BME280;40710;51.120;13.136;2023-02-16T09:15:02;100141.00;;;12.92;42.92
54329;BME280;40710;51.120;13.136;2023-02-16T09:17:27;100145.66;;;13.39;42.14
54329;BME280;40710;51.120;13.136;2023-02-16T09:19:52;100144.91;;;13.87;41.08
54329;BME280;40710;51.120;13.136;2023-02-16T09:22:17;100142.66;;;13.79;41.21
54329;BME280;40710;51.120;13.136;2023-02-16T09:24:41;100167.09;;;12.06;44.10
54329;BME280;40710;51.120;13.136;2023-02-16T09:27:06;100152.69;;;13.21;42.24
54329;BME280;40710;51.120;13.136;2023-02-16T09:29:30;100135.50;;;15.36;39.07
54329;BME280;40710;51.120;13.136;2023-02-16T09:31:55;100139.19;;;17.01;35.17
54329;BME280;40710;51.120;13.136;2023-02-16T09:34:21;100143.25;;;16.79;35.64
54329;BME280;40710;51.120;13.136;2023-02-16T09:36:47;100144.22;;;18.20;33.40
54329;BME280;40710;51.120;13.136;2023-02-16T09:39:12;100144.50;;;18.89;32.25
54329;BME280;40710;51.120;13.136;2023-02-16T09:44:29;100148.13;;;17.90;32.96
54329;BME280;40710;51.120;13.136;2023-02-16T09:47:08;100141.94;;;20.36;29.82
54329;BME280;40710;51.120;13.136;2023-02-16T09:49:40;100161.84;;;17.84;32.49
54329;BME280;40710;51.120;13.136;2023-02-16T09:54:59;100175.13;;;17.84;33.68
54329;BME280;40710;51.120;13.136;2023-02-16T09:57:49;100153.44;;;18.88;31.79
54329;BME280;40710;51.120;13.136;2023-02-16T10:03:18;100140.41;;;20.66;30.09
54329;BME280;40710;51.120;13.136;2023-02-16T10:05:59;100164.00;;;19.25;34.50
54329;BME280;40710;51.120;13.136;2023-02-16T10:08:36;100162.47;;;18.37;34.03
54329;BME280;40710;51.120;13.136;2023-02-16T10:11:19;100162.59;;;19.08;32.49
54329;BME280;40710;51.120;13.136;2023-02-16T10:19:38;100143.63;;;19.35;31.59
54329;BME280;40710;51.120;13.136;2023-02-16T10:22:09;100135.94;;;19.77;30.38
54329;BME280;40710;51.120;13.136;2023-02-16T10:24:45;100144.00;;;19.31;31.22
54329;BME280;40710;51.120;13.136;2023-02-16T10:27:14;100125.81;;;21.85;28.20
54329;BME280;40710;51.120;13.136;2023-02-16T10:29:39;100148.63;;;19.40;30.08
54329;BME280;40710;51.120;13.136;2023-02-16T10:32:26;100158.16;;;19.20;31.56
54329;BME280;40710;51.120;13.136;2023-02-16T10:35:08;100140.91;;;19.93;30.04
54329;BME280;40710;51.120;13.136;2023-02-16T10:38:04;100143.91;;;19.66;30.69
54329;BME280;40710;51.120;13.136;2023-02-16T10:40:54;100147.31;;;18.75;31.77
54329;BME280;40710;51.120;13.136;2023-02-16T10:46:04;100109.16;;;20.77;29.46
54329;BME280;40710;51.120;13.136;2023-02-16T10:48:29;100124.03;;;19.93;30.61
54329;BME280;40710;51.120;13.136;2023-02-16T10:51:02;100128.69;;;19.21;31.79
54329;BME280;40710;51.120;13.136;2023-02-16T10:53:48;100099.91;;;21.24;29.24
54329;BME280;40710;51.120;13.136;2023-02-16T10:56:48;100123.75;;;19.17;31.75
54329;BME280;40710;51.120;13.136;2023-02-16T10:59:42;100114.91;;;20.62;29.69
54329;BME280;40710;51.120;13.136;2023-02-16T11:02:26;100109.13;;;20.13;30.22
54329;BME280;40710;51.120;13.136;2023-02-16T11:04:57;100127.66;;;18.88;30.87
54329;BME280;40710;51.120;13.136;2023-02-16T11:07:27;100114.19;;;20.92;29.97
54329;BME280;40710;51.120;13.136;2023-02-16T11:09:54;100102.03;;;21.51;29.04
54329;BME280;40710;51.120;13.136;2023-02-16T11:12:39;100103.53;;;21.02;29.22
54329;BME280;40710;51.120;13.136;2023-02-16T11:18:05;100102.31;;;20.85;30.25
54329;BME280;40710;51.120;13.136;2023-02-16T11:20:52;100123.75;;;18.33;32.97
54329;BME280;40710;51.120;13.136;2023-02-16T11:23:24;100105.59;;;19.56;31.53
54329;BME280;40710;51.120;13.136;2023-02-16T11:28:37;100079.53;;;21.32;29.48
54329;BME280;40710;51.120;13.136;2023-02-16T11:31:17;100068.38;;;21.48;29.28
54329;BME280;40710;51.120;13.136;2023-02-16T11:33:54;100069.34;;;21.47;29.43
54329;BME280;40710;51.120;13.136;2023-02-16T11:36:30;100086.66;;;20.15;30.65
54329;BME280;40710;51.120;13.136;2023-02-16T11:38:59;100084.97;;;20.47;30.75
54329;BME280;40710;51.120;13.136;2023-02-16T11:41:25;100075.28;;;20.99;30.00
54329;BME280;40710;51.120;13.136;2023-02-16T11:43:53;100100.03;;;19.48;31.55
54329;BME280;40710;51.120;13.136;2023-02-16T11:46:19;100097.84;;;19.41;31.83
54329;BME280;40710;51.120;13.136;2023-02-16T11:48:44;100065.09;;;21.45;28.46
54329;BME280;40710;51.120;13.136;2023-02-16T11:51:11;100065.75;;;21.58;28.64
54329;BME280;40710;51.120;13.136;2023-02-16T11:53:40;100080.66;;;19.57;31.02
54329;BME280;40710;51.120;13.136;2023-02-16T11:56:21;100073.13;;;20.39;29.80
54329;BME280;40710;51.120;13.136;2023-02-16T11:59:03;100071.22;;;20.19;30.05
54329;BME280;40710;51.120;13.136;2023-02-16T12:01:54;100085.78;;;18.31;33.14
54329;BME280;40710;51.120;13.136;2023-02-16T12:07:50;100079.19;;;19.19;31.50
54329;BME280;40710;51.120;13.136;2023-02-16T12:12:59;100073.31;;;18.91;32.06
54329;BME280;40710;51.120;13.136;2023-02-16T12:21:12;100048.63;;;19.68;30.71
54329;BME280;40710;51.120;13.136;2023-02-16T12:26:52;100036.53;;;20.19;29.78
54329;BME280;40710;51.120;13.136;2023-02-16T12:35:26;100064.13;;;17.74;33.40
54329;BME280;40710;51.120;13.136;2023-02-16T12:41:27;100053.31;;;18.50;33.31
54329;BME280;40710;51.120;13.136;2023-02-16T12:44:02;100049.75;;;18.38;33.16
54329;BME280;40710;51.120;13.136;2023-02-16T12:51:46;100036.88;;;18.56;33.56
54329;BME280;40710;51.120;13.136;2023-02-16T12:54:16;100031.56;;;18.92;32.21
54329;BME280;40710;51.120;13.136;2023-02-16T12:56:51;100023.19;;;19.75;31.44
54329;BME280;40710;51.120;13.136;2023-02-16T12:59:38;100008.84;;;20.52;30.80
54329;BME280;40710;51.120;13.136;2023-02-16T13:02:21;100032.22;;;18.11;33.37
54329;BME280;40710;51.120;13.136;2023-02-16T13:05:11;100024.94;;;18.02;33.69
54329;BME280;40710;51.120;13.136;2023-02-16T13:07:44;100012.69;;;19.29;31.91
54329;BME280;40710;51.120;13.136;2023-02-16T13:13:04;100009.31;;;18.57;32.19
54329;BME280;40710;51.120;13.136;2023-02-16T13:15:46;100036.78;;;18.33;33.50
54329;BME280;40710;51.120;13.136;2023-02-16T13:18:25;100021.81;;;18.32;33.17
54329;BME280;40710;51.120;13.136;2023-02-16T13:21:04;100007.44;;;19.72;31.56
54329;BME280;40710;51.120;13.136;2023-02-16T13:23:43;99999.13;;;19.98;30.88
54329;BME280;40710;51.120;13.136;2023-02-16T13:26:38;100018.41;;;17.19;34.85
54329;BME280;40710;51.120;13.136;2023-02-16T13:29:33;100013.72;;;17.73;33.53
54329;BME280;40710;51.120;13.136;2023-02-16T13:32:36;100020.69;;;18.00;33.02
54329;BME280;40710;51.120;13.136;2023-02-16T13:41:08;100022.66;;;18.80;32.33
54329;BME280;40710;51.120;13.136;2023-02-16T13:43:53;100010.53;;;18.76;33.10
54329;BME280;40710;51.120;13.136;2023-02-16T13:46:27;100006.28;;;19.20;32.40
54329;BME280;40710;51.120;13.136;2023-02-16T13:48:54;100004.59;;;19.96;30.93
54329;BME280;40710;51.120;13.136;2023-02-16T13:51:23;100031.72;;;17.56;34.64
54329;BME280;40710;51.120;13.136;2023-02-16T13:53:59;100031.25;;;17.26;35.35
54329;BME280;40710;51.120;13.136;2023-02-16T13:56:31;100027.69;;;17.64;34.65
54329;BME280;40710;51.120;13.136;2023-02-16T13:58:57;100029.78;;;18.08;34.11
54329;BME280;40710;51.120;13.136;2023-02-16T14:03:58;100020.88;;;18.45;33.61
54329;BME280;40710;51.120;13.136;2023-02-16T14:14:42;100027.63;;;17.27;35.44
54329;BME280;40710;51.120;13.136;2023-02-16T14:19:38;100027.69;;;18.25;34.06
54329;BME280;40710;51.120;13.136;2023-02-16T14:22:10;100018.59;;;17.92;34.99
54329;BME280;40710;51.120;13.136;2023-02-16T14:24:37;100014.84;;;19.01;34.03
54329;BME280;40710;51.120;13.136;2023-02-16T14:27:10;100012.31;;;18.52;33.16
54329;BME280;40710;51.120;13.136;2023-02-16T14:29:44;100009.16;;;18.94;32.67
54329;BME280;40710;51.120;13.136;2023-02-16T14:32:24;100028.59;;;18.12;34.25
54329;BME280;40710;51.120;13.136;2023-02-16T14:34:56;100025.94;;;17.88;34.73
54329;BME280;40710;51.120;13.136;2023-02-16T14:37:40;100033.25;;;17.35;35.50
54329;BME280;40710;51.120;13.136;2023-02-16T14:40:17;100026.47;;;17.93;35.25